createdAt,value
2022-10-28T00:00:27.663Z,96346.31
2022-10-28T00:02:55.066Z,96340.50
2022-10-28T00:05:22.234Z,96341.56
2022-10-28T00:07:48.938Z,96339.31
2022-10-28T00:10:15.743Z,96343.28
2022-10-28T00:12:43.058Z,96337.28
2022-10-28T00:15:09.928Z,96340.84
2022-10-28T00:17:36.654Z,96345.59
2022-10-28T00:20:04.083Z,96341.78
2022-10-28T00:22:30.889Z,96341.84
2022-10-28T00:24:57.590Z,96339.69
2022-10-28T00:27:24.351Z,96339.84
2022-10-28T00:29:51.318Z,96344.53
2022-10-28T00:32:18.055Z,96331.47
2022-10-28T00:34:44.991Z,96335.53
2022-10-28T00:37:11.697Z,96344.34
2022-10-28T00:39:38.480Z,96334.41
2022-10-28T00:42:07.258Z,96338.81
2022-10-28T00:44:53.977Z,96330.19
2022-10-28T00:47:40.371Z,96328.69
2022-10-28T00:50:25.403Z,96332.97
2022-10-28T00:52:56.819Z,96336.84
2022-10-28T00:55:24.841Z,96330.47
2022-10-28T00:57:56.700Z,96322.41
2022-10-28T01:00:25.372Z,96337.84
2022-10-28T01:02:52.275Z,96332.16
2022-10-28T01:05:25.748Z,96332.50
2022-10-28T01:07:57.328Z,96332.09
2022-10-28T01:10:48.702Z,96331.50
2022-10-28T01:14:07.396Z,96336.91
2022-10-28T01:16:36.911Z,96332.13
2022-10-28T01:19:50.185Z,96329.69
2022-10-28T01:22:17.126Z,96327.69
2022-10-28T01:25:23.773Z,96329.19
2022-10-28T01:28:24.407Z,96331.47
2022-10-28T01:31:36.406Z,96335.09
2022-10-28T01:34:08.837Z,96342.09
2022-10-28T01:36:45.248Z,96332.69
2022-10-28T01:39:39.452Z,96336.50
2022-10-28T01:42:12.027Z,96341.28
2022-10-28T01:44:48.570Z,96344.97
2022-10-28T01:47:37.359Z,96346.13
2022-10-28T01:50:12.857Z,96335.34
2022-10-28T01:52:41.308Z,96324.72
2022-10-28T01:55:21.504Z,96337.72
2022-10-28T01:57:51.328Z,96329.44
2022-10-28T02:00:18.391Z,96346.34
2022-10-28T02:02:48.162Z,96349.84
2022-10-28T02:05:33.915Z,96353.94
2022-10-28T02:08:11.224Z,96351.06
2022-10-28T02:10:46.937Z,96338.16
2022-10-28T02:13:15.311Z,96334.53
2022-10-28T02:16:08.419Z,96347.47
2022-10-28T02:19:01.435Z,96348.63
2022-10-28T02:22:24.190Z,96354.56
2022-10-28T02:25:02.751Z,96346.72
2022-10-28T02:27:57.998Z,96353.59
2022-10-28T02:31:06.087Z,96355.56
2022-10-28T02:33:38.343Z,96361.16
2022-10-28T02:36:12.456Z,96350.25
2022-10-28T02:38:44.619Z,96359.09
2022-10-28T02:41:25.306Z,96356.78
2022-10-28T02:43:56.138Z,96356.88
2022-10-28T02:46:26.995Z,96361.59
2022-10-28T02:48:57.579Z,96363.19
2022-10-28T02:51:30.185Z,96355.34
2022-10-28T02:54:06.402Z,96361.66
2022-10-28T02:56:39.680Z,96355.34
2022-10-28T02:59:12.029Z,96354.06
2022-10-28T03:01:39.984Z,96360.78
2022-10-28T03:04:07.022Z,96355.44
2022-10-28T03:06:33.810Z,96361.88
2022-10-28T03:09:00.492Z,96367.00
2022-10-28T03:11:27.546Z,96357.53
2022-10-28T03:13:54.302Z,96356.31
2022-10-28T03:16:21.135Z,96347.00
2022-10-28T03:18:47.881Z,96353.69
2022-10-28T03:21:14.615Z,96361.75
2022-10-28T03:23:41.351Z,96348.09
2022-10-28T03:26:08.291Z,96347.91
2022-10-28T03:28:35.074Z,96362.66
2022-10-28T03:31:01.991Z,96350.03
2022-10-28T03:33:28.801Z,96355.47
2022-10-28T03:35:55.695Z,96356.63
2022-10-28T03:38:22.400Z,96352.13
2022-10-28T03:40:50.215Z,96354.53
2022-10-28T03:43:18.026Z,96353.28
2022-10-28T03:45:44.744Z,96356.13
2022-10-28T03:48:11.550Z,96357.53
2022-10-28T03:50:38.223Z,96360.59
2022-10-28T03:53:05.032Z,96364.22
2022-10-28T03:55:31.847Z,96365.25
2022-10-28T03:58:01.697Z,96352.75
2022-10-28T04:00:29.782Z,96367.94
2022-10-28T04:02:56.828Z,96365.75
2022-10-28T04:05:23.791Z,96369.41
2022-10-28T04:07:50.717Z,96367.16
2022-10-28T04:10:17.579Z,96370.50
2022-10-28T04:12:44.306Z,96373.34
2022-10-28T04:15:11.177Z,96370.03
2022-10-28T04:17:37.990Z,96356.94
2022-10-28T04:20:05.325Z,96369.63
2022-10-28T04:22:32.030Z,96377.53
2022-10-28T04:25:17.603Z,96373.25
2022-10-28T04:27:45.306Z,96373.72
2022-10-28T04:30:13.098Z,96371.50
2022-10-28T04:32:41.295Z,96361.75
2022-10-28T04:35:09.531Z,96368.34
2022-10-28T04:37:36.423Z,96358.38
2022-10-28T04:40:04.445Z,96366.31
2022-10-28T04:42:31.350Z,96374.16
2022-10-28T04:44:58.039Z,96367.56
2022-10-28T04:47:24.856Z,96367.09
2022-10-28T04:49:51.714Z,96377.22
2022-10-28T04:52:18.485Z,96363.97
2022-10-28T04:54:45.511Z,96376.78
2022-10-28T04:57:12.246Z,96372.13
2022-10-28T04:59:39.144Z,96372.81
2022-10-28T05:02:06.011Z,96375.34
2022-10-28T05:04:32.882Z,96376.09
2022-10-28T05:06:59.658Z,96374.34
2022-10-28T05:09:26.624Z,96376.88
2022-10-28T05:11:54.360Z,96372.63
2022-10-28T05:14:21.064Z,96379.31
2022-10-28T05:16:48.152Z,96371.56
2022-10-28T05:19:14.904Z,96381.22
2022-10-28T05:21:41.597Z,96384.06
2022-10-28T05:24:08.752Z,96388.56
2022-10-28T05:26:35.409Z,96386.66
2022-10-28T05:29:02.093Z,96391.31
2022-10-28T05:31:28.835Z,96394.03
2022-10-28T05:33:55.669Z,96392.66
2022-10-28T05:36:22.343Z,96402.34
2022-10-28T05:38:49.762Z,96404.59
2022-10-28T05:41:16.581Z,96404.44
2022-10-28T05:43:43.397Z,96406.41
2022-10-28T05:46:10.115Z,96404.75
2022-10-28T05:48:36.924Z,96401.78
2022-10-28T05:51:03.805Z,96409.50
2022-10-28T05:53:30.788Z,96411.31
2022-10-28T05:55:58.821Z,96405.97
2022-10-28T05:58:25.559Z,96411.69
2022-10-28T06:00:52.283Z,96413.66
2022-10-28T06:03:19.172Z,96420.44
2022-10-28T06:05:46.114Z,96395.25
2022-10-28T06:08:13.943Z,96413.56
2022-10-28T06:10:41.586Z,96417.03
2022-10-28T06:13:07.703Z,96424.53
2022-10-28T06:15:34.541Z,96426.59
2022-10-28T06:18:01.311Z,96428.72
2022-10-28T06:20:28.184Z,96444.09
2022-10-28T06:22:56.142Z,96439.25
2022-10-28T06:25:24.808Z,96442.16
2022-10-28T06:27:55.911Z,96417.00
2022-10-28T06:30:24.173Z,96439.31
2022-10-28T06:32:51.114Z,96438.59
2022-10-28T06:35:18.100Z,96436.41
2022-10-28T06:37:44.761Z,96442.97
2022-10-28T06:40:11.503Z,96439.13
2022-10-28T06:42:38.160Z,96441.44
2022-10-28T06:45:05.560Z,96440.59
2022-10-28T06:47:39.070Z,96439.00
2022-10-28T06:50:08.745Z,96439.19
2022-10-28T06:52:35.567Z,96444.94
2022-10-28T06:55:02.392Z,96439.81
2022-10-28T06:57:29.424Z,96436.88
2022-10-28T06:59:56.222Z,96433.19
2022-10-28T07:02:23.280Z,96431.75
2022-10-28T07:04:49.997Z,96435.34
2022-10-28T07:07:16.902Z,96428.88
2022-10-28T07:09:45.074Z,96440.91
2022-10-28T07:12:12.363Z,96438.91
2022-10-28T07:14:39.064Z,96435.38
2022-10-28T07:17:05.897Z,96441.53
2022-10-28T07:19:32.567Z,96437.41
2022-10-28T07:21:59.342Z,96433.16
2022-10-28T07:26:58.403Z,96418.19
2022-10-28T07:29:25.162Z,96431.31
2022-10-28T07:31:54.772Z,96440.03
2022-10-28T07:34:26.762Z,96419.63
2022-10-28T07:36:55.724Z,96421.53
2022-10-28T07:39:22.972Z,96434.56
2022-10-28T07:41:49.875Z,96411.34
2022-10-28T07:44:16.826Z,96430.44
2022-10-28T07:46:43.554Z,96437.78
2022-10-28T07:49:10.242Z,96435.16
2022-10-28T07:51:37.021Z,96427.69
2022-10-28T07:54:03.890Z,96424.19
2022-10-28T07:56:30.841Z,96419.06
2022-10-28T07:58:57.602Z,96421.75
2022-10-28T08:01:24.351Z,96420.06
2022-10-28T08:03:51.362Z,96414.53
2022-10-28T08:06:20.906Z,96422.66
2022-10-28T08:08:52.695Z,96420.88
2022-10-28T08:11:22.558Z,96411.09
2022-10-28T08:13:50.154Z,96422.50
2022-10-28T08:16:17.203Z,96419.72
2022-10-28T08:18:45.782Z,96412.44
2022-10-28T08:21:13.725Z,96410.78
2022-10-28T08:23:41.578Z,96402.69
2022-10-28T08:26:08.428Z,96418.53
2022-10-28T08:28:35.128Z,96427.28
2022-10-28T08:31:08.750Z,96416.50
2022-10-28T08:33:38.153Z,96420.41
2022-10-28T08:36:06.041Z,96411.63
2022-10-28T08:38:32.938Z,96410.56
2022-10-28T08:41:33.746Z,96410.84
2022-10-28T08:44:23.508Z,96415.22
2022-10-28T08:47:05.274Z,96413.63
2022-10-28T08:49:36.494Z,96403.66
2022-10-28T08:52:24.878Z,96399.03
2022-10-28T08:55:14.032Z,96395.88
2022-10-28T08:57:49.594Z,96397.41
2022-10-28T09:00:29.166Z,96405.53
2022-10-28T09:03:14.785Z,96390.53
2022-10-28T09:05:44.825Z,96388.75
2022-10-28T09:08:34.001Z,96385.75
2022-10-28T09:11:17.312Z,96378.59
2022-10-28T09:14:02.927Z,96374.31
2022-10-28T09:16:38.714Z,96371.59
2022-10-28T09:19:16.310Z,96372.13
2022-10-28T09:22:14.419Z,96368.66
2022-10-28T09:24:51.918Z,96360.59
2022-10-28T09:27:33.771Z,96355.13
2022-10-28T09:30:27.884Z,96365.06
2022-10-28T09:33:28.666Z,96356.50
2022-10-28T09:35:57.039Z,96342.72
2022-10-28T09:38:32.833Z,96343.19
2022-10-28T09:41:11.208Z,96335.50
2022-10-28T09:43:46.158Z,96334.44
2022-10-28T09:46:16.123Z,96328.69
2022-10-28T09:48:52.097Z,96319.88
2022-10-28T09:51:31.219Z,96307.41
2022-10-28T09:53:59.600Z,96313.03
2022-10-28T09:56:28.037Z,96321.88
2022-10-28T09:58:58.101Z,96309.31
2022-10-28T10:01:25.305Z,96308.09
2022-10-28T10:03:52.525Z,96307.19
2022-10-28T10:06:32.278Z,96305.53
2022-10-28T10:09:00.222Z,96297.00
2022-10-28T10:11:29.517Z,96299.41
2022-10-28T10:13:59.652Z,96297.25
2022-10-28T10:16:47.393Z,96295.66
2022-10-28T10:19:14.328Z,96290.03
2022-10-28T10:21:44.366Z,96285.06
2022-10-28T10:24:24.424Z,96275.84
2022-10-28T10:26:52.588Z,96284.44
2022-10-28T10:29:20.692Z,96261.03
2022-10-28T10:31:48.079Z,96274.88
2022-10-28T10:34:24.533Z,96259.97
2022-10-28T10:36:55.609Z,96263.31
2022-10-28T10:39:42.732Z,96262.97
2022-10-28T10:42:17.575Z,96261.84
2022-10-28T10:45:01.492Z,96259.38
2022-10-28T10:47:28.877Z,96258.09
2022-10-28T10:50:20.187Z,96258.34
2022-10-28T10:52:57.284Z,96248.25
2022-10-28T10:55:37.040Z,96250.44
2022-10-28T10:58:05.970Z,96246.13
2022-10-28T11:00:37.572Z,96244.91
2022-10-28T11:03:25.784Z,96239.94
2022-10-28T11:06:18.268Z,96232.81
2022-10-28T11:08:46.609Z,96233.00
2022-10-28T11:11:31.557Z,96240.66
2022-10-28T11:14:26.013Z,96222.97
2022-10-28T11:17:03.128Z,96217.97
2022-10-28T11:19:35.881Z,96212.94
2022-10-28T11:22:11.875Z,96213.59
2022-10-28T11:25:00.537Z,96214.00
2022-10-28T11:27:55.460Z,96215.47
2022-10-28T11:30:43.813Z,96211.84
2022-10-28T11:33:34.379Z,96204.47
2022-10-28T11:36:01.510Z,96205.53
2022-10-28T11:39:00.032Z,96184.31
2022-10-28T11:41:35.743Z,96202.22
2022-10-28T11:44:11.945Z,96191.25
2022-10-28T11:46:49.692Z,96193.72
2022-10-28T11:49:19.387Z,96186.91
2022-10-28T11:51:58.435Z,96189.19
2022-10-28T11:54:45.035Z,96183.47
2022-10-28T11:57:14.573Z,96189.97
2022-10-28T12:00:09.198Z,96184.16
2022-10-28T12:02:53.178Z,96174.44
2022-10-28T12:05:38.192Z,96173.25
2022-10-28T12:08:11.559Z,96168.75
2022-10-28T12:10:56.803Z,96169.72
2022-10-28T12:13:42.395Z,96159.63
2022-10-28T12:16:36.566Z,96161.63
2022-10-28T12:19:30.648Z,96154.41
2022-10-28T12:22:05.813Z,96150.53
2022-10-28T12:24:36.304Z,96154.06
2022-10-28T12:27:17.095Z,96154.06
2022-10-28T12:29:53.236Z,96140.16
2022-10-28T12:32:28.730Z,96154.06
2022-10-28T12:35:22.584Z,96141.91
2022-10-28T12:37:55.596Z,96144.91
2022-10-28T12:40:25.975Z,96143.78
2022-10-28T12:43:08.052Z,96137.00
2022-10-28T12:45:35.967Z,96133.94
2022-10-28T12:48:24.195Z,96133.78
2022-10-28T12:50:56.715Z,96133.38
2022-10-28T12:53:35.855Z,96120.88
2022-10-28T12:56:12.365Z,96130.16
2022-10-28T12:59:09.046Z,96124.78
2022-10-28T13:01:36.768Z,96124.34
2022-10-28T13:04:04.011Z,96121.97
2022-10-28T13:07:11.087Z,96124.84
2022-10-28T13:09:54.227Z,96122.03
2022-10-28T13:12:42.805Z,96119.13
2022-10-28T13:15:37.704Z,96119.72
2022-10-28T13:18:35.424Z,96114.25
2022-10-28T13:21:06.792Z,96109.78
2022-10-28T13:23:42.539Z,96118.09
2022-10-28T13:26:37.868Z,96117.78
2022-10-28T13:29:07.424Z,96117.22
2022-10-28T13:31:44.261Z,96113.84
2022-10-28T13:34:14.946Z,96115.88
2022-10-28T13:36:44.449Z,96113.81
2022-10-28T13:39:24.846Z,96110.13
2022-10-28T13:42:14.796Z,96105.03
2022-10-28T13:44:58.865Z,96111.81
2022-10-28T13:47:39.428Z,96111.06
2022-10-28T13:50:06.415Z,96127.31
2022-10-28T13:52:47.219Z,96119.03
2022-10-28T13:55:14.073Z,96117.22
2022-10-28T13:57:46.539Z,96114.63
2022-10-28T14:00:19.183Z,96122.09
2022-10-28T14:03:00.048Z,96112.56
2022-10-28T14:05:47.452Z,96124.72
2022-10-28T14:08:26.228Z,96124.75
2022-10-28T14:11:08.328Z,96116.06
2022-10-28T14:13:41.744Z,96112.16
2022-10-28T14:16:24.285Z,96118.22
2022-10-28T14:19:00.444Z,96115.59
2022-10-28T14:22:01.777Z,96112.38
2022-10-28T14:24:35.203Z,96110.00
2022-10-28T14:27:08.290Z,96114.59
2022-10-28T14:29:57.102Z,96117.56
2022-10-28T14:32:33.341Z,96109.72
2022-10-28T14:35:20.377Z,96111.75
2022-10-28T14:38:05.691Z,96106.16
2022-10-28T14:40:44.624Z,96114.19
2022-10-28T14:43:14.332Z,96120.63
2022-10-28T14:45:48.440Z,96108.69
2022-10-28T14:48:18.399Z,96111.88
2022-10-28T14:50:47.969Z,96036.25
2022-10-28T14:53:27.981Z,96106.22
2022-10-28T14:56:08.100Z,96112.00
2022-10-28T14:58:43.939Z,96105.81
2022-10-28T15:01:16.902Z,96104.97
2022-10-28T15:03:50.073Z,96104.31
2022-10-28T15:06:39.433Z,96100.84
2022-10-28T15:09:21.629Z,96106.69
2022-10-28T15:11:56.163Z,96096.63
2022-10-28T15:14:28.158Z,96103.75
2022-10-28T15:16:55.395Z,96109.91
2022-10-28T15:19:27.635Z,96101.25
2022-10-28T15:22:12.626Z,96104.06
2022-10-28T15:24:44.597Z,96108.78
2022-10-28T15:27:15.349Z,96111.13
2022-10-28T15:29:43.169Z,96105.13
2022-10-28T15:32:22.210Z,96117.34
2022-10-28T15:34:49.790Z,96111.44
2022-10-28T15:37:21.547Z,96113.94
2022-10-28T15:39:55.504Z,96109.16
2022-10-28T15:42:37.907Z,96113.75
2022-10-28T15:45:05.933Z,96131.16
2022-10-28T15:47:35.200Z,96130.00
2022-10-28T15:50:19.966Z,96135.09
2022-10-28T15:52:54.743Z,96136.56
2022-10-28T15:55:26.752Z,96142.16
2022-10-28T15:58:22.607Z,96138.78
2022-10-28T16:00:54.015Z,96144.50
2022-10-28T16:03:41.559Z,96134.19
2022-10-28T16:06:31.775Z,96152.03
2022-10-28T16:09:12.159Z,96153.03
2022-10-28T16:11:46.590Z,96150.56
2022-10-28T16:14:33.406Z,96156.38
2022-10-28T16:17:27.273Z,96163.94
2022-10-28T16:19:59.157Z,96165.97
2022-10-28T16:22:28.117Z,96168.06
2022-10-28T16:24:55.996Z,96167.50
2022-10-28T16:27:28.667Z,96149.78
2022-10-28T16:29:55.505Z,96162.16
2022-10-28T16:32:28.885Z,96169.81
2022-10-28T16:34:57.931Z,96159.34
2022-10-28T16:37:27.276Z,96174.50
2022-10-28T16:39:54.881Z,96178.81
2022-10-28T16:42:22.926Z,96177.44
2022-10-28T16:44:51.196Z,96175.31
2022-10-28T16:47:20.630Z,96181.13
2022-10-28T16:49:54.326Z,96184.03
2022-10-28T16:52:30.132Z,96176.81
2022-10-28T16:54:57.719Z,96193.34
2022-10-28T16:59:56.500Z,96183.84
2022-10-28T17:02:32.162Z,96191.75
2022-10-28T17:04:59.860Z,96199.69
2022-10-28T17:07:28.767Z,96188.63
2022-10-28T17:09:56.829Z,96197.44
2022-10-28T17:12:26.896Z,96198.31
2022-10-28T17:14:53.726Z,96187.56
2022-10-28T17:17:20.680Z,96183.81
2022-10-28T17:19:47.463Z,96191.84
2022-10-28T17:22:14.365Z,96192.72
2022-10-28T17:24:41.272Z,96199.72
2022-10-28T17:27:08.221Z,96196.94
2022-10-28T17:29:35.142Z,96197.50
2022-10-28T17:32:02.641Z,96200.47
2022-10-28T17:34:29.379Z,96206.88
2022-10-28T17:36:56.608Z,96204.50
2022-10-28T17:39:26.209Z,96215.88
2022-10-28T17:41:53.719Z,96211.34
2022-10-28T17:44:20.705Z,96212.56
2022-10-28T17:46:51.489Z,96221.97
2022-10-28T17:49:18.634Z,96218.28
2022-10-28T17:51:45.424Z,96211.81
2022-10-28T17:54:12.503Z,96217.53
2022-10-28T17:56:42.220Z,96219.66
2022-10-28T17:59:09.586Z,96212.28
2022-10-28T18:01:36.900Z,96214.16
2022-10-28T18:04:04.632Z,96212.09
2022-10-28T18:06:32.138Z,96212.75
2022-10-28T18:08:59.126Z,96220.03
2022-10-28T18:11:27.523Z,96219.31
2022-10-28T18:13:56.340Z,96211.38
2022-10-28T18:16:27.566Z,96212.94
2022-10-28T18:18:55.997Z,96223.47
2022-10-28T18:21:25.176Z,96214.22
2022-10-28T18:23:53.192Z,96208.03
2022-10-28T18:26:20.926Z,96210.31
2022-10-28T18:28:49.138Z,96212.00
2022-10-28T18:31:18.978Z,96208.44
2022-10-28T18:33:47.134Z,96206.13
2022-10-28T18:36:16.858Z,96218.34
2022-10-28T18:38:44.003Z,96220.97
2022-10-28T18:41:16.212Z,96224.94
2022-10-28T18:43:43.006Z,96221.78
2022-10-28T18:46:10.422Z,96214.63
2022-10-28T18:48:37.648Z,96220.66
2022-10-28T18:51:06.866Z,96224.66
2022-10-28T18:53:42.318Z,96224.09
2022-10-28T18:56:17.289Z,96223.50
2022-10-28T18:58:44.781Z,96223.50
2022-10-28T19:01:17.206Z,96229.09
2022-10-28T19:03:44.641Z,96222.22
2022-10-28T19:06:13.862Z,96228.78
2022-10-28T19:08:41.694Z,96224.56
2022-10-28T19:11:10.711Z,96227.72
2022-10-28T19:13:39.934Z,96234.59
2022-10-28T19:16:09.060Z,96222.41
2022-10-28T19:18:38.242Z,96236.84
2022-10-28T19:21:12.782Z,96231.59
2022-10-28T19:23:40.444Z,96236.28
2022-10-28T19:26:08.001Z,96232.09
2022-10-28T19:28:42.763Z,96238.47
2022-10-28T19:31:12.884Z,96236.09
2022-10-28T19:33:40.258Z,96235.28
2022-10-28T19:36:25.549Z,96249.59
2022-10-28T19:38:56.372Z,96254.38
2022-10-28T19:41:25.624Z,96253.84
2022-10-28T19:43:56.897Z,96251.19
2022-10-28T19:46:26.246Z,96251.72
2022-10-28T19:48:55.879Z,96252.28
2022-10-28T19:51:31.288Z,96254.13
2022-10-28T19:54:00.572Z,96261.03
2022-10-28T19:56:28.637Z,96255.97
2022-10-28T19:58:57.806Z,96252.28
2022-10-28T20:01:26.503Z,96265.53
2022-10-28T20:03:54.842Z,96251.72
2022-10-28T20:06:24.199Z,96267.63
2022-10-28T20:08:51.133Z,96265.00
2022-10-28T20:11:24.720Z,96279.53
2022-10-28T20:13:56.888Z,96286.13
2022-10-28T20:16:25.320Z,96275.00
2022-10-28T20:18:54.060Z,96272.31
2022-10-28T20:21:22.531Z,96266.00
2022-10-28T20:23:53.661Z,96271.72
2022-10-28T20:26:25.993Z,96291.19
2022-10-28T20:28:53.232Z,96277.63
2022-10-28T20:31:22.559Z,96280.56
2022-10-28T20:33:58.670Z,96279.28
2022-10-28T20:36:27.120Z,96274.06
2022-10-28T20:38:55.314Z,96269.97
2022-10-28T20:41:23.599Z,96291.63
2022-10-28T20:43:51.754Z,96288.69
2022-10-28T20:46:20.288Z,96286.91
2022-10-28T20:48:48.165Z,96297.44
2022-10-28T20:51:15.589Z,96294.72
2022-10-28T20:53:42.867Z,96289.78
2022-10-28T20:56:23.992Z,96288.63
2022-10-28T20:58:51.938Z,96287.00
2022-10-28T21:01:22.034Z,96291.16
2022-10-28T21:03:49.480Z,96289.63
2022-10-28T21:06:17.229Z,96291.19
2022-10-28T21:08:44.169Z,96287.84
2022-10-28T21:11:13.363Z,96287.22
2022-10-28T21:13:40.581Z,96287.22
2022-10-28T21:16:09.810Z,96285.63
2022-10-28T21:18:37.798Z,96291.53
2022-10-28T21:21:05.246Z,96290.75
2022-10-28T21:23:32.163Z,96267.00
2022-10-28T21:26:01.164Z,96288.22
2022-10-28T21:28:29.033Z,96282.59
2022-10-28T21:31:02.498Z,96280.63
2022-10-28T21:33:30.032Z,96276.56
2022-10-28T21:35:58.200Z,96279.72
2022-10-28T21:38:27.077Z,96279.47
2022-10-28T21:41:11.589Z,96286.41
2022-10-28T21:43:40.666Z,96283.53
2022-10-28T21:46:07.917Z,96284.94
2022-10-28T21:48:36.023Z,96286.84
2022-10-28T21:51:08.580Z,96280.22
2022-10-28T21:53:39.618Z,96278.41
2022-10-28T21:56:16.680Z,96276.03
2022-10-28T21:58:44.588Z,96284.25
2022-10-28T22:01:12.836Z,96286.31
2022-10-28T22:03:39.997Z,96287.50
2022-10-28T22:06:07.395Z,96283.06
2022-10-28T22:08:34.707Z,96283.50
2022-10-28T22:11:16.855Z,96283.81
2022-10-28T22:13:44.141Z,96292.31
2022-10-28T22:16:13.126Z,96276.88
2022-10-28T22:18:40.466Z,96276.22
2022-10-28T22:21:15.608Z,96280.13
2022-10-28T22:23:42.819Z,96276.50
2022-10-28T22:26:13.146Z,96279.09
2022-10-28T22:28:40.268Z,96278.75
2022-10-28T22:31:09.392Z,96282.44
2022-10-28T22:33:37.105Z,96273.44
2022-10-28T22:36:06.497Z,96282.94
2022-10-28T22:38:34.129Z,96276.34
2022-10-28T22:41:11.319Z,96283.69
2022-10-28T22:43:39.015Z,96282.88
2022-10-28T22:46:06.107Z,96281.00
2022-10-28T22:48:33.687Z,96275.84
2022-10-28T22:51:00.902Z,96270.78
2022-10-28T22:53:27.752Z,96266.22
2022-10-28T22:55:55.582Z,96264.25
2022-10-28T22:58:24.168Z,96266.16
2022-10-28T23:00:51.321Z,96269.66
2022-10-28T23:03:18.415Z,96271.69
2022-10-28T23:05:45.669Z,96273.06
2022-10-28T23:08:15.448Z,96276.97
2022-10-28T23:10:43.085Z,96281.06
2022-10-28T23:13:13.412Z,96276.56
2022-10-28T23:15:40.304Z,96281.63
2022-10-28T23:18:07.058Z,96279.75
2022-10-28T23:20:35.747Z,96283.34
2022-10-28T23:23:02.634Z,96283.09
2022-10-28T23:25:29.633Z,96272.00
2022-10-28T23:27:56.864Z,96277.53
2022-10-28T23:30:24.185Z,96267.44
2022-10-28T23:32:50.858Z,96269.53
2022-10-28T23:35:17.639Z,96266.75
2022-10-28T23:37:45.350Z,96268.06
2022-10-28T23:40:12.309Z,96269.13
2022-10-28T23:42:39.331Z,96276.09
2022-10-28T23:45:07.020Z,96282.78
2022-10-28T23:47:33.758Z,96277.13
2022-10-28T23:50:00.509Z,96278.09
2022-10-28T23:52:27.529Z,96276.72
2022-10-28T23:54:54.252Z,96264.47
2022-10-28T23:57:20.994Z,96269.13
2022-10-28T23:59:47.854Z,96266.94
